sensor_id;sensor_type;location;lat;lon;timestamp;temperature;humidity
70928;SHT31;58587;53.034;18.576;2023-04-12T00:01:00;7.28;92.82
70928;SHT31;58587;53.034;18.576;2023-04-12T00:03:26;7.27;92.69
70928;SHT31;58587;53.034;18.576;2023-04-12T00:05:51;7.24;92.53
70928;SHT31;58587;53.034;18.576;2023-04-12T00:08:19;7.21;92.90
70928;SHT31;58587;53.034;18.576;2023-04-12T00:10:49;7.18;92.68
70928;SHT31;58587;53.034;18.576;2023-04-12T00:13:14;7.07;93.20
70928;SHT31;58587;53.034;18.576;2023-04-12T00:15:40;7.10;93.12
70928;SHT31;58587;53.034;18.576;2023-04-12T00:18:05;7.10;93.06
70928;SHT31;58587;53.034;18.576;2023-04-12T00:20:30;7.07;92.70
70928;SHT31;58587;53.034;18.576;2023-04-12T00:22:56;7.10;92.79
70928;SHT31;58587;53.034;18.576;2023-04-12T00:25:21;7.08;92.72
70928;SHT31;58587;53.034;18.576;2023-04-12T00:27:47;7.07;92.85
70928;SHT31;58587;53.034;18.576;2023-04-12T00:30:12;7.01;93.10
70928;SHT31;58587;53.034;18.576;2023-04-12T00:32:37;6.95;92.72
70928;SHT31;58587;53.034;18.576;2023-04-12T00:35:03;6.93;92.96
70928;SHT31;58587;53.034;18.576;2023-04-12T00:37:28;6.93;92.83
70928;SHT31;58587;53.034;18.576;2023-04-12T00:39:54;6.76;93.54
70928;SHT31;58587;53.034;18.576;2023-04-12T00:42:19;6.87;93.47
70928;SHT31;58587;53.034;18.576;2023-04-12T00:44:45;6.83;93.21
70928;SHT31;58587;53.034;18.576;2023-04-12T00:47:10;6.86;93.36
70928;SHT31;58587;53.034;18.576;2023-04-12T00:49:36;6.85;93.36
70928;SHT31;58587;53.034;18.576;2023-04-12T00:52:06;6.87;93.31
70928;SHT31;58587;53.034;18.576;2023-04-12T00:54:33;6.89;93.26
70928;SHT31;58587;53.034;18.576;2023-04-12T00:57:02;6.89;93.10
70928;SHT31;58587;53.034;18.576;2023-04-12T00:59:28;6.86;93.40
70928;SHT31;58587;53.034;18.576;2023-04-12T01:01:56;6.87;93.56
70928;SHT31;58587;53.034;18.576;2023-04-12T01:04:23;6.89;93.22
70928;SHT31;58587;53.034;18.576;2023-04-12T01:07:28;6.87;93.16
70928;SHT31;58587;53.034;18.576;2023-04-12T01:15:31;6.87;93.38
70928;SHT31;58587;53.034;18.576;2023-04-12T01:18:12;6.87;93.07
70928;SHT31;58587;53.034;18.576;2023-04-12T01:20:46;6.90;93.01
70928;SHT31;58587;53.034;18.576;2023-04-12T01:27:03;6.92;93.59
70928;SHT31;58587;53.034;18.576;2023-04-12T01:29:26;6.87;93.08
70928;SHT31;58587;53.034;18.576;2023-04-12T01:31:57;6.90;93.04
70928;SHT31;58587;53.034;18.576;2023-04-12T01:34:24;6.89;93.47
70928;SHT31;58587;53.034;18.576;2023-04-12T01:36:51;6.87;93.00
70928;SHT31;58587;53.034;18.576;2023-04-12T01:39:16;6.90;93.13
70928;SHT31;58587;53.034;18.576;2023-04-12T01:41:42;6.85;93.28
70928;SHT31;58587;53.034;18.576;2023-04-12T01:44:13;6.87;93.42
70928;SHT31;58587;53.034;18.576;2023-04-12T01:46:39;6.85;93.56
70928;SHT31;58587;53.034;18.576;2023-04-12T01:49:05;6.85;93.36
70928;SHT31;58587;53.034;18.576;2023-04-12T01:54:23;6.79;93.68
70928;SHT31;58587;53.034;18.576;2023-04-12T01:56:54;6.80;93.26
70928;SHT31;58587;53.034;18.576;2023-04-12T01:59:22;6.82;93.37
70928;SHT31;58587;53.034;18.576;2023-04-12T02:01:50;6.80;93.36
70928;SHT31;58587;53.034;18.576;2023-04-12T02:04:17;6.87;93.12
70928;SHT31;58587;53.034;18.576;2023-04-12T02:06:44;6.76;93.34
70928;SHT31;58587;53.034;18.576;2023-04-12T02:09:10;6.82;93.84
70928;SHT31;58587;53.034;18.576;2023-04-12T02:11:36;6.82;93.43
70928;SHT31;58587;53.034;18.576;2023-04-12T02:14:01;6.76;93.63
70928;SHT31;58587;53.034;18.576;2023-04-12T02:16:26;6.68;93.62
70928;SHT31;58587;53.034;18.576;2023-04-12T02:18:53;6.68;94.01
70928;SHT31;58587;53.034;18.576;2023-04-12T02:21:20;6.63;94.22
70928;SHT31;58587;53.034;18.576;2023-04-12T02:23:45;6.56;93.90
70928;SHT31;58587;53.034;18.576;2023-04-12T02:26:11;6.59;94.02
70928;SHT31;58587;53.034;18.576;2023-04-12T02:28:37;6.65;94.03
70928;SHT31;58587;53.034;18.576;2023-04-12T02:31:04;6.61;93.88
70928;SHT31;58587;53.034;18.576;2023-04-12T02:33:30;6.52;93.81
70928;SHT31;58587;53.034;18.576;2023-04-12T02:35:55;6.57;94.30
70928;SHT31;58587;53.034;18.576;2023-04-12T02:38:21;6.63;94.14
70928;SHT31;58587;53.034;18.576;2023-04-12T02:40:47;6.61;94.14
70928;SHT31;58587;53.034;18.576;2023-04-12T02:43:12;6.59;94.21
70928;SHT31;58587;53.034;18.576;2023-04-12T02:45:38;6.57;94.48
70928;SHT31;58587;53.034;18.576;2023-04-12T02:48:03;6.59;94.13
70928;SHT31;58587;53.034;18.576;2023-04-12T02:50:29;6.66;94.20
70928;SHT31;58587;53.034;18.576;2023-04-12T02:52:55;6.53;93.79
70928;SHT31;58587;53.034;18.576;2023-04-12T02:55:20;6.55;94.21
70928;SHT31;58587;53.034;18.576;2023-04-12T02:57:46;6.62;94.30
70928;SHT31;58587;53.034;18.576;2023-04-12T03:00:13;6.56;93.99
70928;SHT31;58587;53.034;18.576;2023-04-12T03:02:42;6.61;94.12
70928;SHT31;58587;53.034;18.576;2023-04-12T03:05:08;6.63;93.95
70928;SHT31;58587;53.034;18.576;2023-04-12T03:07:34;6.62;94.17
70928;SHT31;58587;53.034;18.576;2023-04-12T03:10:00;6.59;94.36
70928;SHT31;58587;53.034;18.576;2023-04-12T03:12:25;6.71;94.12
70928;SHT31;58587;53.034;18.576;2023-04-12T03:14:51;6.63;94.29
70928;SHT31;58587;53.034;18.576;2023-04-12T03:17:16;6.66;94.10
70928;SHT31;58587;53.034;18.576;2023-04-12T03:19:41;6.62;94.29
70928;SHT31;58587;53.034;18.576;2023-04-12T03:22:07;6.62;94.05
70928;SHT31;58587;53.034;18.576;2023-04-12T03:24:32;6.66;94.19
70928;SHT31;58587;53.034;18.576;2023-04-12T03:26:59;6.62;94.45
70928;SHT31;58587;53.034;18.576;2023-04-12T03:29:24;6.69;94.35
70928;SHT31;58587;53.034;18.576;2023-04-12T03:31:49;6.59;93.88
70928;SHT31;58587;53.034;18.576;2023-04-12T03:34:14;6.65;94.22
70928;SHT31;58587;53.034;18.576;2023-04-12T03:36:40;6.71;94.27
70928;SHT31;58587;53.034;18.576;2023-04-12T03:39:06;6.71;93.94
70928;SHT31;58587;53.034;18.576;2023-04-12T03:41:32;6.65;94.08
70928;SHT31;58587;53.034;18.576;2023-04-12T03:43:58;6.71;94.05
70928;SHT31;58587;53.034;18.576;2023-04-12T03:46:23;6.69;94.34
70928;SHT31;58587;53.034;18.576;2023-04-12T03:48:48;6.71;94.02
70928;SHT31;58587;53.034;18.576;2023-04-12T03:51:16;6.72;94.03
70928;SHT31;58587;53.034;18.576;2023-04-12T03:53:41;6.68;93.93
70928;SHT31;58587;53.034;18.576;2023-04-12T03:56:07;6.63;93.97
70928;SHT31;58587;53.034;18.576;2023-04-12T03:58:33;6.62;94.07
70928;SHT31;58587;53.034;18.576;2023-04-12T04:01:01;6.62;93.93
70928;SHT31;58587;53.034;18.576;2023-04-12T04:03:28;6.63;93.86
70928;SHT31;58587;53.034;18.576;2023-04-12T04:05:54;6.65;93.99
70928;SHT31;58587;53.034;18.576;2023-04-12T04:08:19;6.62;94.11
70928;SHT31;58587;53.034;18.576;2023-04-12T04:10:45;6.66;93.69
70928;SHT31;58587;53.034;18.576;2023-04-12T04:13:10;6.66;94.05
70928;SHT31;58587;53.034;18.576;2023-04-12T04:15:36;6.63;93.78
70928;SHT31;58587;53.034;18.576;2023-04-12T04:18:01;6.56;94.11
70928;SHT31;58587;53.034;18.576;2023-04-12T04:20:26;6.56;94.00
70928;SHT31;58587;53.034;18.576;2023-04-12T13:24:30;10.68;76.25
70928;SHT31;58587;53.034;18.576;2023-04-12T13:26:56;10.69;75.57
70928;SHT31;58587;53.034;18.576;2023-04-12T13:29:22;10.64;75.10
70928;SHT31;58587;53.034;18.576;2023-04-12T13:31:47;10.55;74.83
70928;SHT31;58587;53.034;18.576;2023-04-12T13:34:13;10.58;76.24
70928;SHT31;58587;53.034;18.576;2023-04-12T13:36:38;10.48;75.14
70928;SHT31;58587;53.034;18.576;2023-04-12T13:39:04;10.61;75.88
70928;SHT31;58587;53.034;18.576;2023-04-12T13:41:29;10.68;76.08
70928;SHT31;58587;53.034;18.576;2023-04-12T13:43:57;10.64;74.43
70928;SHT31;58587;53.034;18.576;2023-04-12T13:46:22;10.72;76.29
70928;SHT31;58587;53.034;18.576;2023-04-12T13:48:47;10.82;76.71
70928;SHT31;58587;53.034;18.576;2023-04-12T13:51:13;10.76;74.45
70928;SHT31;58587;53.034;18.576;2023-04-12T13:53:42;10.81;74.23
70928;SHT31;58587;53.034;18.576;2023-04-12T13:56:08;10.88;73.97
70928;SHT31;58587;53.034;18.576;2023-04-12T13:58:34;11.01;75.26
70928;SHT31;58587;53.034;18.576;2023-04-12T14:01:00;11.12;76.42
70928;SHT31;58587;53.034;18.576;2023-04-12T14:03:26;11.08;73.82
70928;SHT31;58587;53.034;18.576;2023-04-12T14:05:51;11.20;74.54
70928;SHT31;58587;53.034;18.576;2023-04-12T14:08:16;11.29;75.14
70928;SHT31;58587;53.034;18.576;2023-04-12T14:10:42;11.39;73.89
70928;SHT31;58587;53.034;18.576;2023-04-12T14:13:07;11.35;73.23
70928;SHT31;58587;53.034;18.576;2023-04-12T14:15:32;11.46;74.34
70928;SHT31;58587;53.034;18.576;2023-04-12T14:17:57;11.50;72.94
70928;SHT31;58587;53.034;18.576;2023-04-12T14:20:23;11.56;71.54
70928;SHT31;58587;53.034;18.576;2023-04-12T14:22:49;11.65;73.31
70928;SHT31;58587;53.034;18.576;2023-04-12T14:25:14;11.69;72.09
70928;SHT31;58587;53.034;18.576;2023-04-12T14:27:40;11.77;71.71
70928;SHT31;58587;53.034;18.576;2023-04-12T14:30:06;11.76;71.73
70928;SHT31;58587;53.034;18.576;2023-04-12T14:32:31;11.65;71.28
70928;SHT31;58587;53.034;18.576;2023-04-12T14:34:57;11.63;71.03
70928;SHT31;58587;53.034;18.576;2023-04-12T14:37:22;11.69;72.26
70928;SHT31;58587;53.034;18.576;2023-04-12T14:39:51;11.76;72.33
70928;SHT31;58587;53.034;18.576;2023-04-12T14:42:17;11.70;71.45
70928;SHT31;58587;53.034;18.576;2023-04-12T14:44:42;11.59;70.34
70928;SHT31;58587;53.034;18.576;2023-04-12T14:47:07;11.59;70.87
70928;SHT31;58587;53.034;18.576;2023-04-12T14:49:33;11.60;71.43
70928;SHT31;58587;53.034;18.576;2023-04-12T14:51:59;11.62;71.06
70928;SHT31;58587;53.034;18.576;2023-04-12T14:54:24;11.63;71.61
70928;SHT31;58587;53.034;18.576;2023-04-12T14:56:49;11.69;72.87
70928;SHT31;58587;53.034;18.576;2023-04-12T14:59:15;11.70;72.60
70928;SHT31;58587;53.034;18.576;2023-04-12T15:01:41;11.70;72.58
70928;SHT31;58587;53.034;18.576;2023-04-12T15:04:06;11.69;72.09
70928;SHT31;58587;53.034;18.576;2023-04-12T15:06:32;11.69;71.47
70928;SHT31;58587;53.034;18.576;2023-04-12T15:09:06;11.63;70.28
70928;SHT31;58587;53.034;18.576;2023-04-12T15:11:32;11.59;69.25
70928;SHT31;58587;53.034;18.576;2023-04-12T15:13:59;11.57;71.36
70928;SHT31;58587;53.034;18.576;2023-04-12T15:16:26;11.60;73.14
70928;SHT31;58587;53.034;18.576;2023-04-12T15:18:52;11.55;70.80
70928;SHT31;58587;53.034;18.576;2023-04-12T15:21:18;11.53;70.96
70928;SHT31;58587;53.034;18.576;2023-04-12T15:23:43;11.49;71.33
70928;SHT31;58587;53.034;18.576;2023-04-12T15:26:09;11.47;69.90
70928;SHT31;58587;53.034;18.576;2023-04-12T15:28:35;11.43;70.67
70928;SHT31;58587;53.034;18.576;2023-04-12T15:31:01;11.46;70.92
70928;SHT31;58587;53.034;18.576;2023-04-12T15:33:27;11.42;69.29
70928;SHT31;58587;53.034;18.576;2023-04-12T15:35:53;11.35;68.68
70928;SHT31;58587;53.034;18.576;2023-04-12T15:38:25;11.30;69.00
70928;SHT31;58587;53.034;18.576;2023-04-12T15:40:53;11.33;70.11
70928;SHT31;58587;53.034;18.576;2023-04-12T15:43:19;11.46;70.79
70928;SHT31;58587;53.034;18.576;2023-04-12T15:45:45;11.50;69.40
70928;SHT31;58587;53.034;18.576;2023-04-12T15:48:10;11.47;70.05
70928;SHT31;58587;53.034;18.576;2023-04-12T15:50:36;11.50;69.55
70928;SHT31;58587;53.034;18.576;2023-04-12T15:53:01;11.53;70.10
70928;SHT31;58587;53.034;18.576;2023-04-12T15:55:26;11.52;70.15
70928;SHT31;58587;53.034;18.576;2023-04-12T15:57:52;11.44;69.02
70928;SHT31;58587;53.034;18.576;2023-04-12T16:00:18;11.47;70.30
70928;SHT31;58587;53.034;18.576;2023-04-12T16:02:51;11.50;70.93
70928;SHT31;58587;53.034;18.576;2023-04-12T16:05:18;11.44;68.74
70928;SHT31;58587;53.034;18.576;2023-04-12T16:07:44;11.46;70.19
70928;SHT31;58587;53.034;18.576;2023-04-12T16:10:10;11.44;69.64
70928;SHT31;58587;53.034;18.576;2023-04-12T16:12:36;11.46;69.71
70928;SHT31;58587;53.034;18.576;2023-04-12T16:15:01;11.44;69.24
70928;SHT31;58587;53.034;18.576;2023-04-12T16:17:27;11.46;69.77
70928;SHT31;58587;53.034;18.576;2023-04-12T16:19:52;11.42;69.98
70928;SHT31;58587;53.034;18.576;2023-04-12T16:22:18;11.36;69.67
70928;SHT31;58587;53.034;18.576;2023-04-12T16:24:43;11.33;69.50
70928;SHT31;58587;53.034;18.576;2023-04-12T16:27:09;11.26;70.62
70928;SHT31;58587;53.034;18.576;2023-04-12T16:29:35;11.26;71.89
70928;SHT31;58587;53.034;18.576;2023-04-12T16:32:00;11.26;71.70
70928;SHT31;58587;53.034;18.576;2023-04-12T16:34:25;11.22;71.41
70928;SHT31;58587;53.034;18.576;2023-04-12T16:36:51;11.20;71.77
70928;SHT31;58587;53.034;18.576;2023-04-12T16:39:16;11.16;71.83
70928;SHT31;58587;53.034;18.576;2023-04-12T16:41:42;11.01;71.36
70928;SHT31;58587;53.034;18.576;2023-04-12T16:44:15;10.96;72.39
70928;SHT31;58587;53.034;18.576;2023-04-12T16:46:40;10.95;72.65
70928;SHT31;58587;53.034;18.576;2023-04-12T16:49:06;10.86;73.98
70928;SHT31;58587;53.034;18.576;2023-04-12T16:51:31;10.79;73.61
70928;SHT31;58587;53.034;18.576;2023-04-12T16:53:56;10.75;73.73
70928;SHT31;58587;53.034;18.576;2023-04-12T16:56:23;10.67;74.92
70928;SHT31;58587;53.034;18.576;2023-04-12T16:58:49;10.60;74.56
70928;SHT31;58587;53.034;18.576;2023-04-12T17:01:14;10.51;74.98
70928;SHT31;58587;53.034;18.576;2023-04-12T17:03:40;10.40;75.10
70928;SHT31;58587;53.034;18.576;2023-04-12T17:06:05;10.36;75.38
70928;SHT31;58587;53.034;18.576;2023-04-12T17:08:31;10.27;76.39
70928;SHT31;58587;53.034;18.576;2023-04-12T17:10:56;10.18;76.16
70928;SHT31;58587;53.034;18.576;2023-04-12T17:13:22;10.10;77.45
70928;SHT31;58587;53.034;18.576;2023-04-12T17:15:47;10.02;78.02
70928;SHT31;58587;53.034;18.576;2023-04-12T17:18:12;9.93;78.87
70928;SHT31;58587;53.034;18.576;2023-04-12T17:20:38;9.86;78.63
70928;SHT31;58587;53.034;18.576;2023-04-12T17:23:03;9.80;78.94
70928;SHT31;58587;53.034;18.576;2023-04-12T17:25:30;9.70;78.84
70928;SHT31;58587;53.034;18.576;2023-04-12T17:27:59;9.65;79.04
70928;SHT31;58587;53.034;18.576;2023-04-12T17:30:25;9.55;79.63
70928;SHT31;58587;53.034;18.576;2023-04-12T17:32:50;9.43;80.25
70928;SHT31;58587;53.034;18.576;2023-04-12T17:35:16;9.38;80.38
70928;SHT31;58587;53.034;18.576;2023-04-12T17:37:42;9.28;81.04
70928;SHT31;58587;53.034;18.576;2023-04-12T17:40:08;9.17;81.44
70928;SHT31;58587;53.034;18.576;2023-04-12T17:42:37;9.08;81.41
70928;SHT31;58587;53.034;18.576;2023-04-12T17:45:04;8.98;82.29
70928;SHT31;58587;53.034;18.576;2023-04-12T17:47:31;8.88;81.93
70928;SHT31;58587;53.034;18.576;2023-04-12T17:49:56;8.78;82.26
70928;SHT31;58587;53.034;18.576;2023-04-12T17:52:22;8.70;83.20
70928;SHT31;58587;53.034;18.576;2023-04-12T17:54:47;8.61;83.52
70928;SHT31;58587;53.034;18.576;2023-04-12T17:57:12;8.49;83.53
70928;SHT31;58587;53.034;18.576;2023-04-12T17:59:38;8.46;83.06
70928;SHT31;58587;53.034;18.576;2023-04-12T18:02:03;8.36;83.42
70928;SHT31;58587;53.034;18.576;2023-04-12T18:04:29;8.29;83.43
70928;SHT31;58587;53.034;18.576;2023-04-12T18:06:55;8.22;83.42
70928;SHT31;58587;53.034;18.576;2023-04-12T18:09:21;8.12;83.71
70928;SHT31;58587;53.034;18.576;2023-04-12T18:11:47;8.07;84.14
70928;SHT31;58587;53.034;18.576;2023-04-12T18:14:12;8.02;84.19
70928;SHT31;58587;53.034;18.576;2023-04-12T18:16:38;7.93;84.35
70928;SHT31;58587;53.034;18.576;2023-04-12T18:19:05;7.86;84.84
70928;SHT31;58587;53.034;18.576;2023-04-12T18:21:32;7.81;85.05
70928;SHT31;58587;53.034;18.576;2023-04-12T18:23:59;7.74;85.29
70928;SHT31;58587;53.034;18.576;2023-04-12T18:26:25;7.64;85.53
70928;SHT31;58587;53.034;18.576;2023-04-12T18:28:51;7.57;85.37
70928;SHT31;58587;53.034;18.576;2023-04-12T18:31:17;7.50;85.71
70928;SHT31;58587;53.034;18.576;2023-04-12T18:33:43;7.47;85.91
70928;SHT31;58587;53.034;18.576;2023-04-12T18:36:09;7.40;86.21
70928;SHT31;58587;53.034;18.576;2023-04-12T18:38:34;7.37;86.16
70928;SHT31;58587;53.034;18.576;2023-04-12T18:41:01;7.28;86.74
70928;SHT31;58587;53.034;18.576;2023-04-12T18:43:26;7.27;86.56
70928;SHT31;58587;53.034;18.576;2023-04-12T18:45:52;7.20;86.74
70928;SHT31;58587;53.034;18.576;2023-04-12T18:48:17;7.14;86.81
70928;SHT31;58587;53.034;18.576;2023-04-12T18:50:44;7.11;87.18
70928;SHT31;58587;53.034;18.576;2023-04-12T18:53:10;7.04;87.15
70928;SHT31;58587;53.034;18.576;2023-04-12T18:55:35;6.99;87.33
70928;SHT31;58587;53.034;18.576;2023-04-12T18:58:00;6.97;87.17
70928;SHT31;58587;53.034;18.576;2023-04-12T19:00:26;6.92;87.49
70928;SHT31;58587;53.034;18.576;2023-04-12T19:02:52;6.90;87.46
70928;SHT31;58587;53.034;18.576;2023-04-12T19:05:17;6.89;87.29
70928;SHT31;58587;53.034;18.576;2023-04-12T19:07:43;6.82;87.71
70928;SHT31;58587;53.034;18.576;2023-04-12T19:10:09;6.86;87.36
70928;SHT31;58587;53.034;18.576;2023-04-12T19:12:34;6.85;87.47
70928;SHT31;58587;53.034;18.576;2023-04-12T19:15:00;6.82;87.49
70928;SHT31;58587;53.034;18.576;2023-04-12T19:17:25;6.82;87.69
70928;SHT31;58587;53.034;18.576;2023-04-12T19:19:55;6.82;87.36
70928;SHT31;58587;53.034;18.576;2023-04-12T19:22:21;6.85;87.29
70928;SHT31;58587;53.034;18.576;2023-04-12T19:24:47;6.90;87.23
70928;SHT31;58587;53.034;18.576;2023-04-12T19:27:14;6.92;87.35
70928;SHT31;58587;53.034;18.576;2023-04-12T19:29:39;6.93;87.22
70928;SHT31;58587;53.034;18.576;2023-04-12T19:32:05;6.95;87.08
70928;SHT31;58587;53.034;18.576;2023-04-12T19:34:31;6.96;87.25
70928;SHT31;58587;53.034;18.576;2023-04-12T19:36:58;6.96;87.22
70928;SHT31;58587;53.034;18.576;2023-04-12T19:39:23;6.99;87.32
70928;SHT31;58587;53.034;18.576;2023-04-12T19:41:51;6.97;87.21
70928;SHT31;58587;53.034;18.576;2023-04-12T19:44:16;7.04;86.86
70928;SHT31;58587;53.034;18.576;2023-04-12T19:46:41;7.07;86.95
70928;SHT31;58587;53.034;18.576;2023-04-12T19:49:07;7.08;86.78
70928;SHT31;58587;53.034;18.576;2023-04-12T19:51:33;7.06;86.85
70928;SHT31;58587;53.034;18.576;2023-04-12T19:53:59;7.07;86.97
70928;SHT31;58587;53.034;18.576;2023-04-12T19:56:24;7.06;86.97
70928;SHT31;58587;53.034;18.576;2023-04-12T19:58:50;7.04;87.17
70928;SHT31;58587;53.034;18.576;2023-04-12T20:01:15;7.03;87.05
70928;SHT31;58587;53.034;18.576;2023-04-12T20:03:40;7.03;86.96
70928;SHT31;58587;53.034;18.576;2023-04-12T20:06:09;7.03;86.81
70928;SHT31;58587;53.034;18.576;2023-04-12T20:08:35;7.08;86.62
70928;SHT31;58587;53.034;18.576;2023-04-12T20:11:00;7.08;86.82
70928;SHT31;58587;53.034;18.576;2023-04-12T20:13:26;7.07;86.75
70928;SHT31;58587;53.034;18.576;2023-04-12T20:15:53;7.08;86.65
70928;SHT31;58587;53.034;18.576;2023-04-12T20:18:18;7.06;86.81
70928;SHT31;58587;53.034;18.576;2023-04-12T20:20:44;7.04;86.90
70928;SHT31;58587;53.034;18.576;2023-04-12T20:23:11;7.06;87.13
70928;SHT31;58587;53.034;18.576;2023-04-12T20:25:36;7.03;87.08
70928;SHT31;58587;53.034;18.576;2023-04-12T20:28:02;7.00;87.05
70928;SHT31;58587;53.034;18.576;2023-04-12T20:30:29;7.04;86.96
70928;SHT31;58587;53.034;18.576;2023-04-12T20:32:55;6.99;86.91
70928;SHT31;58587;53.034;18.576;2023-04-12T20:35:20;6.99;86.95
70928;SHT31;58587;53.034;18.576;2023-04-12T20:37:45;7.00;87.14
70928;SHT31;58587;53.034;18.576;2023-04-12T20:40:14;6.99;86.84
70928;SHT31;58587;53.034;18.576;2023-04-12T20:42:40;6.96;87.10
70928;SHT31;58587;53.034;18.576;2023-04-12T20:45:07;6.93;87.24
70928;SHT31;58587;53.034;18.576;2023-04-12T20:47:34;6.93;87.29
70928;SHT31;58587;53.034;18.576;2023-04-12T20:49:59;6.89;87.73
70928;SHT31;58587;53.034;18.576;2023-04-12T20:52:25;6.85;87.86
70928;SHT31;58587;53.034;18.576;2023-04-12T20:54:51;6.86;87.95
70928;SHT31;58587;53.034;18.576;2023-04-12T20:57:17;6.85;87.97
70928;SHT31;58587;53.034;18.576;2023-04-12T20:59:44;6.85;87.83
70928;SHT31;58587;53.034;18.576;2023-04-12T21:02:10;6.83;87.96
70928;SHT31;58587;53.034;18.576;2023-04-12T21:04:37;6.83;87.60
70928;SHT31;58587;53.034;18.576;2023-04-12T21:07:05;6.83;87.71
70928;SHT31;58587;53.034;18.576;2023-04-12T21:09:30;6.80;87.81
70928;SHT31;58587;53.034;18.576;2023-04-12T21:11:56;6.76;87.66
70928;SHT31;58587;53.034;18.576;2023-04-12T21:14:22;6.76;87.59
70928;SHT31;58587;53.034;18.576;2023-04-12T21:16:47;6.72;87.65
70928;SHT31;58587;53.034;18.576;2023-04-12T21:19:14;6.72;87.70
70928;SHT31;58587;53.034;18.576;2023-04-12T21:21:40;6.72;87.56
70928;SHT31;58587;53.034;18.576;2023-04-12T21:24:05;6.73;87.53
70928;SHT31;58587;53.034;18.576;2023-04-12T21:26:31;6.73;87.30
70928;SHT31;58587;53.034;18.576;2023-04-12T21:28:57;6.72;87.33
70928;SHT31;58587;53.034;18.576;2023-04-12T21:31:23;6.68;87.46
70928;SHT31;58587;53.034;18.576;2023-04-12T21:33:51;6.66;87.35
70928;SHT31;58587;53.034;18.576;2023-04-12T21:36:17;6.65;87.51
70928;SHT31;58587;53.034;18.576;2023-04-12T21:38:43;6.62;87.39
70928;SHT31;58587;53.034;18.576;2023-04-12T21:41:09;6.66;87.32
70928;SHT31;58587;53.034;18.576;2023-04-12T21:43:38;6.65;87.30
70928;SHT31;58587;53.034;18.576;2023-04-12T21:46:05;6.66;87.33
70928;SHT31;58587;53.034;18.576;2023-04-12T21:48:32;6.66;87.28
70928;SHT31;58587;53.034;18.576;2023-04-12T21:50:57;6.71;87.31
70928;SHT31;58587;53.034;18.576;2023-04-12T21:53:23;6.72;87.30
70928;SHT31;58587;53.034;18.576;2023-04-12T21:55:48;6.75;87.16
70928;SHT31;58587;53.034;18.576;2023-04-12T21:58:14;6.75;87.27
70928;SHT31;58587;53.034;18.576;2023-04-12T22:00:41;6.76;87.20
70928;SHT31;58587;53.034;18.576;2023-04-12T22:03:06;6.80;87.08
70928;SHT31;58587;53.034;18.576;2023-04-12T22:05:32;6.79;87.15
70928;SHT31;58587;53.034;18.576;2023-04-12T22:07:57;6.77;87.21
70928;SHT31;58587;53.034;18.576;2023-04-12T22:10:22;6.77;87.25
70928;SHT31;58587;53.034;18.576;2023-04-12T22:12:48;6.80;87.15
70928;SHT31;58587;53.034;18.576;2023-04-12T22:15:18;6.83;87.10
70928;SHT31;58587;53.034;18.576;2023-04-12T22:17:44;6.87;86.95
70928;SHT31;58587;53.034;18.576;2023-04-12T22:20:10;6.89;86.95
70928;SHT31;58587;53.034;18.576;2023-04-12T22:22:37;6.87;86.88
70928;SHT31;58587;53.034;18.576;2023-04-12T22:25:03;6.87;86.82
70928;SHT31;58587;53.034;18.576;2023-04-12T22:27:29;6.86;86.97
70928;SHT31;58587;53.034;18.576;2023-04-12T22:29:54;6.89;87.03
70928;SHT31;58587;53.034;18.576;2023-04-12T22:32:19;6.87;86.94
70928;SHT31;58587;53.034;18.576;2023-04-12T22:34:45;6.83;87.10
70928;SHT31;58587;53.034;18.576;2023-04-12T22:37:10;6.85;87.06
70928;SHT31;58587;53.034;18.576;2023-04-12T22:39:36;6.80;87.02
70928;SHT31;58587;53.034;18.576;2023-04-12T22:42:01;6.82;86.97
70928;SHT31;58587;53.034;18.576;2023-04-12T22:44:28;6.80;87.00
70928;SHT31;58587;53.034;18.576;2023-04-12T22:46:54;6.79;87.09
70928;SHT31;58587;53.034;18.576;2023-04-12T22:49:25;6.75;87.10
70928;SHT31;58587;53.034;18.576;2023-04-12T22:51:53;6.75;87.16
70928;SHT31;58587;53.034;18.576;2023-04-12T22:54:18;6.73;87.27
70928;SHT31;58587;53.034;18.576;2023-04-12T22:56:44;6.73;86.99
70928;SHT31;58587;53.034;18.576;2023-04-12T22:59:10;6.75;87.03
70928;SHT31;58587;53.034;18.576;2023-04-12T23:01:40;6.72;87.09
70928;SHT31;58587;53.034;18.576;2023-04-12T23:04:06;6.71;87.11
70928;SHT31;58587;53.034;18.576;2023-04-12T23:06:31;6.71;87.03
70928;SHT31;58587;53.034;18.576;2023-04-12T23:08:57;6.71;87.21
70928;SHT31;58587;53.034;18.576;2023-04-12T23:11:25;6.69;87.11
70928;SHT31;58587;53.034;18.576;2023-04-12T23:13:53;6.69;87.04
70928;SHT31;58587;53.034;18.576;2023-04-12T23:16:21;6.69;87.11
70928;SHT31;58587;53.034;18.576;2023-04-12T23:18:48;6.68;87.03
70928;SHT31;58587;53.034;18.576;2023-04-12T23:21:14;6.63;87.20
70928;SHT31;58587;53.034;18.576;2023-04-12T23:23:39;6.65;87.26
70928;SHT31;58587;53.034;18.576;2023-04-12T23:26:05;6.63;87.37
70928;SHT31;58587;53.034;18.576;2023-04-12T23:28:31;6.62;87.41
70928;SHT31;58587;53.034;18.576;2023-04-12T23:30:57;6.61;87.33
70928;SHT31;58587;53.034;18.576;2023-04-12T23:33:23;6.62;87.01
70928;SHT31;58587;53.034;18.576;2023-04-12T23:35:50;6.63;87.01
70928;SHT31;58587;53.034;18.576;2023-04-12T23:38:22;6.62;87.03
70928;SHT31;58587;53.034;18.576;2023-04-12T23:40:51;6.61;86.95
70928;SHT31;58587;53.034;18.576;2023-04-12T23:43:21;6.61;87.10
70928;SHT31;58587;53.034;18.576;2023-04-12T23:45:47;6.59;86.94
70928;SHT31;58587;53.034;18.576;2023-04-12T23:48:13;6.56;87.00
70928;SHT31;58587;53.034;18.576;2023-04-12T23:50:38;6.57;87.03
70928;SHT31;58587;53.034;18.576;2023-04-12T23:53:04;6.56;86.82
70928;SHT31;58587;53.034;18.576;2023-04-12T23:55:29;6.57;86.82
70928;SHT31;58587;53.034;18.576;2023-04-12T23:57:55;6.56;86.76
